sensor_id;sensor_type;location;lat;lon;timestamp;P1;durP1;ratioP1;P2;durP2;ratioP2
80576;SDS011;69937;52.420;10.538;2023-05-15T00:03:46;7.63;;;5.97;;
80576;SDS011;69937;52.420;10.538;2023-05-15T00:08:47;6.95;;;5.53;;
80576;SDS011;69937;52.420;10.538;2023-05-15T00:13:48;8.73;;;6.88;;
80576;SDS011;69937;52.420;10.538;2023-05-15T00:18:49;9.57;;;7.25;;
80576;SDS011;69937;52.420;10.538;2023-05-15T00:23:49;14.48;;;5.70;;
80576;SDS011;69937;52.420;10.538;2023-05-15T00:28:52;9.23;;;6.40;;
80576;SDS011;69937;52.420;10.538;2023-05-15T00:33:53;8.68;;;6.68;;
80576;SDS011;69937;52.420;10.538;2023-05-15T00:38:53;7.82;;;6.00;;
80576;SDS011;69937;52.420;10.538;2023-05-15T00:43:54;6.82;;;6.13;;
80576;SDS011;69937;52.420;10.538;2023-05-15T00:48:56;7.90;;;5.70;;
80576;SDS011;69937;52.420;10.538;2023-05-15T00:53:57;8.15;;;5.63;;
80576;SDS011;69937;52.420;10.538;2023-05-15T00:58:58;8.15;;;5.97;;
80576;SDS011;69937;52.420;10.538;2023-05-15T01:04:02;8.00;;;6.10;;
80576;SDS011;69937;52.420;10.538;2023-05-15T01:09:03;8.77;;;6.15;;
80576;SDS011;69937;52.420;10.538;2023-05-15T01:14:07;9.05;;;7.90;;
80576;SDS011;69937;52.420;10.538;2023-05-15T01:19:08;9.18;;;6.00;;
80576;SDS011;69937;52.420;10.538;2023-05-15T01:29:39;10.32;;;5.78;;
80576;SDS011;69937;52.420;10.538;2023-05-15T01:40:13;8.20;;;6.47;;
80576;SDS011;69937;52.420;10.538;2023-05-15T01:45:15;9.23;;;6.03;;
80576;SDS011;69937;52.420;10.538;2023-05-15T01:50:16;7.78;;;6.60;;
80576;SDS011;69937;52.420;10.538;2023-05-15T01:55:18;7.50;;;6.70;;
80576;SDS011;69937;52.420;10.538;2023-05-15T02:00:21;7.10;;;5.85;;
80576;SDS011;69937;52.420;10.538;2023-05-15T02:05:22;8.13;;;5.75;;
80576;SDS011;69937;52.420;10.538;2023-05-15T02:10:23;10.48;;;6.30;;
80576;SDS011;69937;52.420;10.538;2023-05-15T02:15:24;7.68;;;5.97;;
80576;SDS011;69937;52.420;10.538;2023-05-15T02:20:27;8.50;;;6.88;;
80576;SDS011;69937;52.420;10.538;2023-05-15T02:25:33;10.18;;;6.88;;
80576;SDS011;69937;52.420;10.538;2023-05-15T02:30:50;8.57;;;6.10;;
80576;SDS011;69937;52.420;10.538;2023-05-15T02:36:17;8.30;;;6.82;;
80576;SDS011;69937;52.420;10.538;2023-05-15T02:41:22;9.18;;;6.30;;
80576;SDS011;69937;52.420;10.538;2023-05-15T02:46:23;9.77;;;6.30;;
80576;SDS011;69937;52.420;10.538;2023-05-15T02:51:24;7.75;;;6.85;;
80576;SDS011;69937;52.420;10.538;2023-05-15T02:56:24;9.45;;;7.05;;
80576;SDS011;69937;52.420;10.538;2023-05-15T03:01:25;12.13;;;7.75;;
80576;SDS011;69937;52.420;10.538;2023-05-15T03:06:26;9.90;;;6.78;;
80576;SDS011;69937;52.420;10.538;2023-05-15T03:11:26;8.98;;;5.88;;
80576;SDS011;69937;52.420;10.538;2023-05-15T03:16:27;7.25;;;5.30;;
80576;SDS011;69937;52.420;10.538;2023-05-15T03:21:27;8.35;;;7.07;;
80576;SDS011;69937;52.420;10.538;2023-05-15T03:26:28;7.60;;;6.80;;
80576;SDS011;69937;52.420;10.538;2023-05-15T03:31:28;9.05;;;6.53;;
80576;SDS011;69937;52.420;10.538;2023-05-15T03:36:29;11.00;;;6.35;;
80576;SDS011;69937;52.420;10.538;2023-05-15T03:41:30;7.65;;;6.25;;
80576;SDS011;69937;52.420;10.538;2023-05-15T03:46:30;7.00;;;6.30;;
80576;SDS011;69937;52.420;10.538;2023-05-15T03:51:31;8.48;;;6.88;;
80576;SDS011;69937;52.420;10.538;2023-05-15T03:56:32;10.32;;;6.72;;
80576;SDS011;69937;52.420;10.538;2023-05-15T04:01:32;12.55;;;7.15;;
80576;SDS011;69937;52.420;10.538;2023-05-15T04:06:33;8.82;;;6.05;;
80576;SDS011;69937;52.420;10.538;2023-05-15T04:11:33;10.48;;;7.07;;
80576;SDS011;69937;52.420;10.538;2023-05-15T04:16:34;9.02;;;6.45;;
80576;SDS011;69937;52.420;10.538;2023-05-15T04:21:35;12.45;;;6.57;;
80576;SDS011;69937;52.420;10.538;2023-05-15T04:26:35;7.65;;;6.75;;
80576;SDS011;69937;52.420;10.538;2023-05-15T04:31:36;13.15;;;7.85;;
80576;SDS011;69937;52.420;10.538;2023-05-15T04:36:37;9.77;;;8.77;;
80576;SDS011;69937;52.420;10.538;2023-05-15T04:41:38;10.27;;;7.20;;
80576;SDS011;69937;52.420;10.538;2023-05-15T04:46:38;9.18;;;6.55;;
80576;SDS011;69937;52.420;10.538;2023-05-15T04:51:39;13.75;;;6.82;;
80576;SDS011;69937;52.420;10.538;2023-05-15T04:56:40;13.68;;;7.30;;
80576;SDS011;69937;52.420;10.538;2023-05-15T05:01:41;7.70;;;6.13;;
80576;SDS011;69937;52.420;10.538;2023-05-15T05:06:42;10.60;;;7.40;;
80576;SDS011;69937;52.420;10.538;2023-05-15T05:11:42;10.07;;;6.93;;
80576;SDS011;69937;52.420;10.538;2023-05-15T05:16:43;10.77;;;9.52;;
80576;SDS011;69937;52.420;10.538;2023-05-15T05:21:44;8.27;;;6.13;;
80576;SDS011;69937;52.420;10.538;2023-05-15T05:26:45;7.40;;;6.63;;
80576;SDS011;69937;52.420;10.538;2023-05-15T05:31:45;9.70;;;7.57;;
80576;SDS011;69937;52.420;10.538;2023-05-15T05:36:46;10.50;;;7.10;;
80576;SDS011;69937;52.420;10.538;2023-05-15T05:41:47;9.98;;;7.90;;
80576;SDS011;69937;52.420;10.538;2023-05-15T05:46:48;11.40;;;7.10;;
80576;SDS011;69937;52.420;10.538;2023-05-15T05:51:48;12.38;;;7.25;;
80576;SDS011;69937;52.420;10.538;2023-05-15T05:56:49;10.00;;;8.32;;
80576;SDS011;69937;52.420;10.538;2023-05-15T06:01:49;14.00;;;7.10;;
80576;SDS011;69937;52.420;10.538;2023-05-15T06:06:50;11.55;;;6.30;;
80576;SDS011;69937;52.420;10.538;2023-05-15T06:11:51;14.32;;;7.05;;
80576;SDS011;69937;52.420;10.538;2023-05-15T06:16:51;8.30;;;7.05;;
80576;SDS011;69937;52.420;10.538;2023-05-15T06:21:52;13.60;;;7.28;;
80576;SDS011;69937;52.420;10.538;2023-05-15T06:26:53;9.60;;;6.05;;
80576;SDS011;69937;52.420;10.538;2023-05-15T06:31:54;10.40;;;6.75;;
80576;SDS011;69937;52.420;10.538;2023-05-15T06:36:54;8.88;;;6.65;;
80576;SDS011;69937;52.420;10.538;2023-05-15T06:41:55;7.80;;;6.13;;
80576;SDS011;69937;52.420;10.538;2023-05-15T06:47:00;9.20;;;5.97;;
80576;SDS011;69937;52.420;10.538;2023-05-15T06:52:00;10.80;;;6.50;;
80576;SDS011;69937;52.420;10.538;2023-05-15T06:57:01;8.60;;;5.93;;
80576;SDS011;69937;52.420;10.538;2023-05-15T07:02:02;10.20;;;7.70;;
80576;SDS011;69937;52.420;10.538;2023-05-15T07:07:03;9.65;;;6.50;;
80576;SDS011;69937;52.420;10.538;2023-05-15T07:12:03;15.02;;;5.90;;
80576;SDS011;69937;52.420;10.538;2023-05-15T07:17:04;9.43;;;5.65;;
80576;SDS011;69937;52.420;10.538;2023-05-15T07:22:05;9.10;;;5.63;;
80576;SDS011;69937;52.420;10.538;2023-05-15T07:27:05;9.27;;;6.07;;
80576;SDS011;69937;52.420;10.538;2023-05-15T07:32:06;7.43;;;5.57;;
80576;SDS011;69937;52.420;10.538;2023-05-15T07:37:08;8.90;;;5.28;;
80576;SDS011;69937;52.420;10.538;2023-05-15T07:42:09;7.93;;;5.10;;
80576;SDS011;69937;52.420;10.538;2023-05-15T07:47:09;6.25;;;5.13;;
80576;SDS011;69937;52.420;10.538;2023-05-15T07:52:10;8.73;;;6.07;;
80576;SDS011;69937;52.420;10.538;2023-05-15T07:57:10;8.90;;;5.65;;
80576;SDS011;69937;52.420;10.538;2023-05-15T08:02:11;9.60;;;5.75;;
80576;SDS011;69937;52.420;10.538;2023-05-15T08:07:13;7.85;;;6.07;;
80576;SDS011;69937;52.420;10.538;2023-05-15T08:12:14;8.93;;;5.40;;
80576;SDS011;69937;52.420;10.538;2023-05-15T08:17:23;9.15;;;5.68;;
80576;SDS011;69937;52.420;10.538;2023-05-15T08:22:24;7.55;;;5.80;;
80576;SDS011;69937;52.420;10.538;2023-05-15T08:27:24;10.55;;;5.40;;
80576;SDS011;69937;52.420;10.538;2023-05-15T08:32:25;8.40;;;5.55;;
80576;SDS011;69937;52.420;10.538;2023-05-15T08:37:26;7.03;;;5.07;;
80576;SDS011;69937;52.420;10.538;2023-05-15T08:42:32;8.07;;;4.45;;
80576;SDS011;69937;52.420;10.538;2023-05-15T08:47:40;9.30;;;5.03;;
80576;SDS011;69937;52.420;10.538;2023-05-15T08:52:43;7.30;;;4.13;;
80576;SDS011;69937;52.420;10.538;2023-05-15T08:57:46;6.25;;;4.10;;
80576;SDS011;69937;52.420;10.538;2023-05-15T09:02:46;7.43;;;4.70;;
80576;SDS011;69937;52.420;10.538;2023-05-15T09:07:47;7.15;;;3.92;;
80576;SDS011;69937;52.420;10.538;2023-05-15T09:12:50;7.78;;;4.68;;
80576;SDS011;69937;52.420;10.538;2023-05-15T09:17:52;5.05;;;3.63;;
80576;SDS011;69937;52.420;10.538;2023-05-15T09:22:54;4.93;;;3.55;;
80576;SDS011;69937;52.420;10.538;2023-05-15T09:27:55;7.65;;;4.00;;
80576;SDS011;69937;52.420;10.538;2023-05-15T09:32:59;5.30;;;3.53;;
80576;SDS011;69937;52.420;10.538;2023-05-15T09:38:07;5.93;;;3.80;;
80576;SDS011;69937;52.420;10.538;2023-05-15T09:43:09;5.53;;;3.28;;
80576;SDS011;69937;52.420;10.538;2023-05-15T09:53:13;4.57;;;2.67;;
80576;SDS011;69937;52.420;10.538;2023-05-15T09:58:15;6.45;;;3.30;;
80576;SDS011;69937;52.420;10.538;2023-05-15T10:03:17;3.25;;;2.55;;
80576;SDS011;69937;52.420;10.538;2023-05-15T10:08:25;4.07;;;2.50;;
80576;SDS011;69937;52.420;10.538;2023-05-15T10:13:27;5.43;;;2.40;;
80576;SDS011;69937;52.420;10.538;2023-05-15T10:18:32;6.05;;;2.88;;
80576;SDS011;69937;52.420;10.538;2023-05-15T10:23:35;6.05;;;2.17;;
80576;SDS011;69937;52.420;10.538;2023-05-15T10:28:37;3.20;;;2.05;;
80576;SDS011;69937;52.420;10.538;2023-05-15T10:33:39;4.97;;;2.20;;
80576;SDS011;69937;52.420;10.538;2023-05-15T10:38:40;8.40;;;2.70;;
80576;SDS011;69937;52.420;10.538;2023-05-15T10:43:41;3.88;;;2.25;;
80576;SDS011;69937;52.420;10.538;2023-05-15T10:48:43;5.75;;;2.10;;
80576;SDS011;69937;52.420;10.538;2023-05-15T10:53:44;4.82;;;2.55;;
80576;SDS011;69937;52.420;10.538;2023-05-15T10:58:48;4.40;;;2.20;;
80576;SDS011;69937;52.420;10.538;2023-05-15T11:03:50;6.35;;;2.13;;
80576;SDS011;69937;52.420;10.538;2023-05-15T11:08:50;7.93;;;2.35;;
80576;SDS011;69937;52.420;10.538;2023-05-15T11:19:19;6.22;;;2.30;;
80576;SDS011;69937;52.420;10.538;2023-05-15T11:24:25;2.83;;;2.05;;
80576;SDS011;69937;52.420;10.538;2023-05-15T11:29:29;4.15;;;1.90;;
80576;SDS011;69937;52.420;10.538;2023-05-15T11:34:33;3.88;;;2.67;;
80576;SDS011;69937;52.420;10.538;2023-05-15T11:44:37;6.30;;;3.25;;
80576;SDS011;69937;52.420;10.538;2023-05-15T11:49:39;5.38;;;2.70;;
80576;SDS011;69937;52.420;10.538;2023-05-15T11:54:40;7.32;;;3.30;;
80576;SDS011;69937;52.420;10.538;2023-05-15T11:59:41;7.00;;;3.47;;
80576;SDS011;69937;52.420;10.538;2023-05-15T12:04:41;6.97;;;3.67;;
80576;SDS011;69937;52.420;10.538;2023-05-15T12:09:42;4.68;;;2.60;;
80576;SDS011;69937;52.420;10.538;2023-05-15T12:14:43;6.38;;;2.63;;
80576;SDS011;69937;52.420;10.538;2023-05-15T12:19:43;5.43;;;3.03;;
80576;SDS011;69937;52.420;10.538;2023-05-15T12:24:45;5.15;;;2.88;;
80576;SDS011;69937;52.420;10.538;2023-05-15T12:29:46;6.93;;;3.08;;
80576;SDS011;69937;52.420;10.538;2023-05-15T12:34:47;10.30;;;3.15;;
80576;SDS011;69937;52.420;10.538;2023-05-15T12:39:48;5.25;;;2.58;;
80576;SDS011;69937;52.420;10.538;2023-05-15T12:44:50;5.47;;;2.67;;
80576;SDS011;69937;52.420;10.538;2023-05-15T12:49:55;6.53;;;3.08;;
80576;SDS011;69937;52.420;10.538;2023-05-15T12:54:58;8.20;;;2.83;;
80576;SDS011;69937;52.420;10.538;2023-05-15T12:59:59;9.25;;;2.97;;
80576;SDS011;69937;52.420;10.538;2023-05-15T13:05:01;5.22;;;2.65;;
80576;SDS011;69937;52.420;10.538;2023-05-15T13:10:06;7.57;;;2.80;;
80576;SDS011;69937;52.420;10.538;2023-05-15T13:15:20;5.55;;;2.38;;
80576;SDS011;69937;52.420;10.538;2023-05-15T13:20:40;3.60;;;2.25;;
80576;SDS011;69937;52.420;10.538;2023-05-15T13:25:53;4.47;;;2.63;;
80576;SDS011;69937;52.420;10.538;2023-05-15T13:30:53;5.03;;;2.63;;
80576;SDS011;69937;52.420;10.538;2023-05-15T13:35:54;4.70;;;2.63;;
80576;SDS011;69937;52.420;10.538;2023-05-15T13:40:56;2.72;;;1.90;;
80576;SDS011;69937;52.420;10.538;2023-05-15T13:45:57;5.72;;;2.10;;
80576;SDS011;69937;52.420;10.538;2023-05-15T13:50:58;4.65;;;2.33;;
80576;SDS011;69937;52.420;10.538;2023-05-15T13:55:58;6.35;;;2.47;;
80576;SDS011;69937;52.420;10.538;2023-05-15T14:01:01;4.50;;;2.20;;
80576;SDS011;69937;52.420;10.538;2023-05-15T14:06:04;3.65;;;2.05;;
80576;SDS011;69937;52.420;10.538;2023-05-15T14:11:04;4.32;;;2.63;;
80576;SDS011;69937;52.420;10.538;2023-05-15T14:16:05;4.65;;;2.10;;
80576;SDS011;69937;52.420;10.538;2023-05-15T14:21:06;3.45;;;1.98;;
80576;SDS011;69937;52.420;10.538;2023-05-15T14:26:06;4.15;;;2.30;;
80576;SDS011;69937;52.420;10.538;2023-05-15T14:31:07;4.35;;;1.63;;
80576;SDS011;69937;52.420;10.538;2023-05-15T14:36:07;5.55;;;2.35;;
80576;SDS011;69937;52.420;10.538;2023-05-15T14:41:08;4.72;;;1.90;;
80576;SDS011;69937;52.420;10.538;2023-05-15T14:46:09;5.25;;;2.40;;
80576;SDS011;69937;52.420;10.538;2023-05-15T14:51:09;4.95;;;2.28;;
80576;SDS011;69937;52.420;10.538;2023-05-15T14:56:10;6.63;;;3.58;;
80576;SDS011;69937;52.420;10.538;2023-05-15T15:01:11;10.02;;;3.70;;
80576;SDS011;69937;52.420;10.538;2023-05-15T15:06:11;6.18;;;4.13;;
80576;SDS011;69937;52.420;10.538;2023-05-15T15:11:12;10.65;;;4.05;;
80576;SDS011;69937;52.420;10.538;2023-05-15T15:16:12;6.70;;;2.95;;
80576;SDS011;69937;52.420;10.538;2023-05-15T15:21:13;8.07;;;3.28;;
80576;SDS011;69937;52.420;10.538;2023-05-15T15:26:14;7.93;;;3.28;;
80576;SDS011;69937;52.420;10.538;2023-05-15T15:31:14;9.23;;;3.30;;
80576;SDS011;69937;52.420;10.538;2023-05-15T15:36:15;5.70;;;2.92;;
80576;SDS011;69937;52.420;10.538;2023-05-15T15:41:15;5.65;;;2.83;;
80576;SDS011;69937;52.420;10.538;2023-05-15T15:46:16;11.52;;;3.60;;
80576;SDS011;69937;52.420;10.538;2023-05-15T15:51:17;3.92;;;2.67;;
80576;SDS011;69937;52.420;10.538;2023-05-15T15:56:17;4.05;;;2.58;;
80576;SDS011;69937;52.420;10.538;2023-05-15T16:01:18;5.30;;;3.00;;
80576;SDS011;69937;52.420;10.538;2023-05-15T16:06:18;4.00;;;2.55;;
80576;SDS011;69937;52.420;10.538;2023-05-15T16:11:19;5.47;;;2.60;;
80576;SDS011;69937;52.420;10.538;2023-05-15T16:16:20;4.00;;;2.70;;
80576;SDS011;69937;52.420;10.538;2023-05-15T16:21:21;2.97;;;2.03;;
80576;SDS011;69937;52.420;10.538;2023-05-15T16:26:22;3.00;;;2.13;;
80576;SDS011;69937;52.420;10.538;2023-05-15T16:31:23;4.03;;;1.67;;
80576;SDS011;69937;52.420;10.538;2023-05-15T16:36:23;2.45;;;1.95;;
80576;SDS011;69937;52.420;10.538;2023-05-15T16:41:25;2.92;;;1.80;;
80576;SDS011;69937;52.420;10.538;2023-05-15T16:46:25;3.92;;;2.20;;
80576;SDS011;69937;52.420;10.538;2023-05-15T16:51:26;2.90;;;2.03;;
80576;SDS011;69937;52.420;10.538;2023-05-15T16:56:26;4.07;;;2.45;;
80576;SDS011;69937;52.420;10.538;2023-05-15T17:01:28;4.03;;;2.15;;
80576;SDS011;69937;52.420;10.538;2023-05-15T17:06:28;4.18;;;2.08;;
80576;SDS011;69937;52.420;10.538;2023-05-15T17:11:29;5.32;;;2.63;;
80576;SDS011;69937;52.420;10.538;2023-05-15T17:16:30;6.43;;;2.35;;
80576;SDS011;69937;52.420;10.538;2023-05-15T17:21:30;5.22;;;2.67;;
80576;SDS011;69937;52.420;10.538;2023-05-15T17:26:31;7.65;;;3.47;;
80576;SDS011;69937;52.420;10.538;2023-05-15T17:31:32;10.15;;;3.55;;
80576;SDS011;69937;52.420;10.538;2023-05-15T17:36:34;7.63;;;3.78;;
80576;SDS011;69937;52.420;10.538;2023-05-15T17:41:35;5.10;;;3.55;;
80576;SDS011;69937;52.420;10.538;2023-05-15T17:46:36;5.55;;;3.72;;
80576;SDS011;69937;52.420;10.538;2023-05-15T17:51:37;7.93;;;3.85;;
80576;SDS011;69937;52.420;10.538;2023-05-15T17:56:38;5.93;;;3.53;;
80576;SDS011;69937;52.420;10.538;2023-05-15T18:01:38;5.47;;;4.05;;
80576;SDS011;69937;52.420;10.538;2023-05-15T18:06:39;5.80;;;3.95;;
80576;SDS011;69937;52.420;10.538;2023-05-15T18:11:40;13.82;;;4.07;;
80576;SDS011;69937;52.420;10.538;2023-05-15T18:16:40;7.47;;;3.95;;
80576;SDS011;69937;52.420;10.538;2023-05-15T18:21:41;8.80;;;4.10;;
80576;SDS011;69937;52.420;10.538;2023-05-15T18:26:41;7.50;;;4.03;;
80576;SDS011;69937;52.420;10.538;2023-05-15T18:31:42;9.48;;;4.18;;
80576;SDS011;69937;52.420;10.538;2023-05-15T18:36:43;4.95;;;4.05;;
80576;SDS011;69937;52.420;10.538;2023-05-15T18:41:44;8.30;;;4.07;;
80576;SDS011;69937;52.420;10.538;2023-05-15T18:46:44;9.85;;;4.45;;
80576;SDS011;69937;52.420;10.538;2023-05-15T18:51:45;6.95;;;5.50;;
80576;SDS011;69937;52.420;10.538;2023-05-15T18:56:45;6.57;;;4.50;;
80576;SDS011;69937;52.420;10.538;2023-05-15T19:01:46;9.90;;;4.65;;
80576;SDS011;69937;52.420;10.538;2023-05-15T19:06:48;8.75;;;4.32;;
80576;SDS011;69937;52.420;10.538;2023-05-15T19:11:49;6.97;;;4.80;;
80576;SDS011;69937;52.420;10.538;2023-05-15T19:16:51;6.38;;;4.20;;
80576;SDS011;69937;52.420;10.538;2023-05-15T19:21:51;8.35;;;4.82;;
80576;SDS011;69937;52.420;10.538;2023-05-15T19:26:52;7.20;;;4.85;;
80576;SDS011;69937;52.420;10.538;2023-05-15T19:31:53;8.38;;;4.70;;
80576;SDS011;69937;52.420;10.538;2023-05-15T19:36:54;8.60;;;5.30;;
80576;SDS011;69937;52.420;10.538;2023-05-15T19:41:55;8.23;;;5.22;;
80576;SDS011;69937;52.420;10.538;2023-05-15T19:46:56;12.35;;;4.65;;
80576;SDS011;69937;52.420;10.538;2023-05-15T19:51:57;6.82;;;5.47;;
80576;SDS011;69937;52.420;10.538;2023-05-15T19:56:57;9.07;;;5.50;;
80576;SDS011;69937;52.420;10.538;2023-05-15T20:02:01;10.85;;;5.47;;
80576;SDS011;69937;52.420;10.538;2023-05-15T20:07:02;10.25;;;4.40;;
80576;SDS011;69937;52.420;10.538;2023-05-15T20:12:03;8.70;;;4.93;;
80576;SDS011;69937;52.420;10.538;2023-05-15T20:17:05;10.45;;;4.75;;
80576;SDS011;69937;52.420;10.538;2023-05-15T20:22:05;6.85;;;4.72;;
80576;SDS011;69937;52.420;10.538;2023-05-15T20:27:06;5.60;;;4.63;;
80576;SDS011;69937;52.420;10.538;2023-05-15T20:32:07;8.45;;;4.18;;
80576;SDS011;69937;52.420;10.538;2023-05-15T20:37:07;9.95;;;4.18;;
80576;SDS011;69937;52.420;10.538;2023-05-15T20:42:08;11.75;;;4.80;;
80576;SDS011;69937;52.420;10.538;2023-05-15T20:47:08;6.38;;;3.85;;
80576;SDS011;69937;52.420;10.538;2023-05-15T20:52:09;9.82;;;3.97;;
80576;SDS011;69937;52.420;10.538;2023-05-15T20:57:09;6.90;;;4.03;;
80576;SDS011;69937;52.420;10.538;2023-05-15T21:02:10;5.90;;;4.15;;
80576;SDS011;69937;52.420;10.538;2023-05-15T21:07:11;6.28;;;4.65;;
80576;SDS011;69937;52.420;10.538;2023-05-15T21:12:11;6.22;;;4.57;;
80576;SDS011;69937;52.420;10.538;2023-05-15T21:17:12;7.65;;;3.88;;
80576;SDS011;69937;52.420;10.538;2023-05-15T21:22:14;6.72;;;4.40;;
80576;SDS011;69937;52.420;10.538;2023-05-15T21:27:14;5.88;;;4.57;;
80576;SDS011;69937;52.420;10.538;2023-05-15T21:32:15;5.80;;;4.68;;
80576;SDS011;69937;52.420;10.538;2023-05-15T21:37:16;6.40;;;4.25;;
80576;SDS011;69937;52.420;10.538;2023-05-15T21:42:16;10.10;;;4.90;;
80576;SDS011;69937;52.420;10.538;2023-05-15T21:47:17;10.27;;;6.55;;
80576;SDS011;69937;52.420;10.538;2023-05-15T21:52:17;9.43;;;4.88;;
80576;SDS011;69937;52.420;10.538;2023-05-15T21:57:18;7.78;;;4.88;;
80576;SDS011;69937;52.420;10.538;2023-05-15T22:02:18;8.15;;;5.20;;
80576;SDS011;69937;52.420;10.538;2023-05-15T22:07:19;9.60;;;5.80;;
80576;SDS011;69937;52.420;10.538;2023-05-15T22:12:19;9.52;;;5.80;;
80576;SDS011;69937;52.420;10.538;2023-05-15T22:17:20;10.10;;;6.43;;
80576;SDS011;69937;52.420;10.538;2023-05-15T22:22:22;8.63;;;6.63;;
80576;SDS011;69937;52.420;10.538;2023-05-15T22:27:23;17.50;;;7.05;;
80576;SDS011;69937;52.420;10.538;2023-05-15T22:32:23;11.38;;;6.35;;
80576;SDS011;69937;52.420;10.538;2023-05-15T22:37:24;10.15;;;8.38;;
80576;SDS011;69937;52.420;10.538;2023-05-15T22:42:25;9.48;;;6.95;;
80576;SDS011;69937;52.420;10.538;2023-05-15T22:47:28;8.48;;;7.15;;
80576;SDS011;69937;52.420;10.538;2023-05-15T22:52:30;13.93;;;7.80;;
80576;SDS011;69937;52.420;10.538;2023-05-15T22:57:30;10.38;;;8.18;;
80576;SDS011;69937;52.420;10.538;2023-05-15T23:02:31;12.93;;;6.95;;
80576;SDS011;69937;52.420;10.538;2023-05-15T23:07:31;8.98;;;5.40;;
80576;SDS011;69937;52.420;10.538;2023-05-15T23:12:32;5.43;;;4.80;;
80576;SDS011;69937;52.420;10.538;2023-05-15T23:17:33;11.57;;;4.93;;
80576;SDS011;69937;52.420;10.538;2023-05-15T23:22:34;7.45;;;4.88;;
80576;SDS011;69937;52.420;10.538;2023-05-15T23:27:34;12.38;;;6.93;;
80576;SDS011;69937;52.420;10.538;2023-05-15T23:32:35;8.63;;;4.43;;
80576;SDS011;69937;52.420;10.538;2023-05-15T23:37:36;6.65;;;5.95;;
80576;SDS011;69937;52.420;10.538;2023-05-15T23:42:37;6.10;;;5.18;;
80576;SDS011;69937;52.420;10.538;2023-05-15T23:47:38;5.45;;;4.82;;
80576;SDS011;69937;52.420;10.538;2023-05-15T23:52:39;8.00;;;5.25;;
80576;SDS011;69937;52.420;10.538;2023-05-15T23:57:40;8.93;;;5.15;;
